createdAt,value
2023-02-11T00:03:01.295Z,98285.59
2023-02-11T00:05:27.649Z,98282.16
2023-02-11T00:07:53.960Z,98268.88
2023-02-11T00:10:20.255Z,98286.88
2023-02-11T00:12:46.548Z,98275.84
2023-02-11T00:15:12.851Z,98274.25
2023-02-11T00:17:39.200Z,98270.88
2023-02-11T00:20:08.082Z,98278.81
2023-02-11T00:22:34.556Z,98279.72
2023-02-11T00:25:00.888Z,98279.22
2023-02-11T00:27:27.177Z,98276.00
2023-02-11T00:29:53.470Z,98274.84
2023-02-11T00:32:19.784Z,98275.97
2023-02-11T00:34:46.065Z,98270.47
2023-02-11T00:37:12.360Z,98266.56
2023-02-11T00:39:38.692Z,98264.28
2023-02-11T00:42:05.002Z,98265.69
2023-02-11T00:44:31.293Z,98261.75
2023-02-11T00:46:57.729Z,98260.47
2023-02-11T00:49:24.022Z,98256.50
2023-02-11T00:51:50.302Z,98258.13
2023-02-11T00:54:16.614Z,98254.19
2023-02-11T00:56:42.944Z,98258.00
2023-02-11T00:59:09.286Z,98246.38
2023-02-11T01:01:35.707Z,98254.78
2023-02-11T01:04:10.888Z,98248.44
2023-02-11T01:06:37.198Z,98254.94
2023-02-11T01:09:03.497Z,98245.25
2023-02-11T01:11:29.783Z,98249.16
2023-02-11T01:13:56.103Z,98243.13
2023-02-11T01:16:22.498Z,98244.91
2023-02-11T01:18:48.818Z,98237.69
2023-02-11T01:21:15.185Z,98238.16
2023-02-11T01:23:41.488Z,98236.25
2023-02-11T01:26:07.795Z,98232.50
2023-02-11T01:28:34.196Z,98227.44
2023-02-11T01:31:00.575Z,98221.75
2023-02-11T01:33:26.920Z,98217.28
2023-02-11T01:35:53.534Z,98213.97
2023-02-11T01:38:19.898Z,98214.56
2023-02-11T01:40:46.196Z,98218.88
2023-02-11T01:43:12.503Z,98220.03
2023-02-11T01:45:38.803Z,98221.47
2023-02-11T01:48:05.084Z,98220.94
2023-02-11T01:50:31.424Z,98222.72
2023-02-11T01:52:57.785Z,98211.19
2023-02-11T01:55:24.079Z,98215.53
2023-02-11T01:57:50.403Z,98209.78
2023-02-11T02:00:16.732Z,98210.47
2023-02-11T02:02:43.023Z,98212.50
2023-02-11T02:05:09.335Z,98209.03
2023-02-11T02:07:35.637Z,98208.38
2023-02-11T02:10:01.936Z,98208.66
2023-02-11T02:12:28.245Z,98211.22
2023-02-11T02:14:54.534Z,98210.78
2023-02-11T02:17:20.831Z,98210.31
2023-02-11T02:19:47.154Z,98208.56
2023-02-11T02:22:13.450Z,98207.28
2023-02-11T02:24:39.747Z,98205.75
2023-02-11T02:27:06.102Z,98206.72
2023-02-11T02:29:32.384Z,98202.72
2023-02-11T02:31:58.681Z,98199.00
2023-02-11T02:34:24.974Z,98200.94
2023-02-11T02:36:51.271Z,98195.84
2023-02-11T02:39:17.571Z,98202.66
2023-02-11T02:41:43.883Z,98193.13
2023-02-11T02:44:10.180Z,98192.75
2023-02-11T02:46:36.539Z,98193.50
2023-02-11T02:49:02.901Z,98197.19
2023-02-11T02:51:29.190Z,98180.47
2023-02-11T02:53:55.492Z,98174.56
2023-02-11T02:56:21.786Z,98175.38
2023-02-11T02:58:48.072Z,98181.75
2023-02-11T03:01:14.422Z,98182.44
2023-02-11T03:03:40.894Z,98173.59
2023-02-11T03:06:07.247Z,98172.78
2023-02-11T03:08:33.599Z,98178.06
2023-02-11T03:10:59.921Z,98174.47
2023-02-11T03:13:26.209Z,98167.16
2023-02-11T03:15:52.829Z,98168.22
2023-02-11T03:18:19.294Z,98169.00
2023-02-11T03:20:45.571Z,98168.34
2023-02-11T03:23:11.851Z,98163.19
2023-02-11T03:25:38.161Z,98165.56
2023-02-11T03:28:04.501Z,98168.88
2023-02-11T03:30:30.827Z,98164.00
2023-02-11T03:32:57.176Z,98155.91
2023-02-11T03:35:23.468Z,98154.56
2023-02-11T03:37:55.879Z,98144.75
2023-02-11T03:40:22.236Z,98148.09
2023-02-11T03:42:48.530Z,98154.09
2023-02-11T03:45:14.824Z,98150.78
2023-02-11T03:47:41.133Z,98145.63
2023-02-11T03:50:07.429Z,98152.31
2023-02-11T03:52:33.725Z,98147.25
2023-02-11T03:55:00.051Z,98147.38
2023-02-11T03:57:26.359Z,98148.81
2023-02-11T03:59:52.664Z,98143.88
2023-02-11T04:02:18.975Z,98155.97
2023-02-11T04:04:45.273Z,98145.69
2023-02-11T04:07:11.554Z,98146.09
2023-02-11T04:09:37.861Z,98148.56
2023-02-11T04:12:04.151Z,98143.50
2023-02-11T04:14:30.448Z,98141.06
2023-02-11T04:16:56.857Z,98140.09
2023-02-11T04:19:23.165Z,98137.97
2023-02-11T04:21:49.459Z,98143.97
2023-02-11T04:24:15.860Z,98141.50
2023-02-11T04:26:42.165Z,98136.63
2023-02-11T04:29:08.456Z,98148.25
2023-02-11T04:31:34.800Z,98146.38
2023-02-11T04:34:01.113Z,98139.44
2023-02-11T04:36:27.471Z,98128.91
2023-02-11T04:38:53.940Z,98128.78
2023-02-11T04:41:20.240Z,98135.78
2023-02-11T04:43:46.549Z,98126.25
2023-02-11T04:46:12.962Z,98130.50
2023-02-11T04:48:39.291Z,98129.09
2023-02-11T04:51:05.576Z,98126.97
2023-02-11T04:53:31.883Z,98120.28
2023-02-11T04:55:58.173Z,98120.13
2023-02-11T04:58:24.512Z,98123.31
2023-02-11T05:00:50.873Z,98129.53
2023-02-11T05:03:17.181Z,98126.06
2023-02-11T05:05:43.489Z,98127.19
2023-02-11T05:08:09.803Z,98118.97
2023-02-11T05:10:36.109Z,98120.94
2023-02-11T05:13:02.421Z,98121.78
2023-02-11T05:15:28.727Z,98125.38
2023-02-11T05:17:55.017Z,98116.78
2023-02-11T05:20:21.301Z,98117.72
2023-02-11T05:22:47.605Z,98119.72
2023-02-11T05:25:13.904Z,98123.53
2023-02-11T05:27:40.192Z,98120.25
2023-02-11T05:30:06.503Z,98114.44
2023-02-11T05:32:32.843Z,98117.75
2023-02-11T05:34:59.135Z,98120.34
2023-02-11T05:37:25.549Z,98122.41
2023-02-11T05:39:51.885Z,98119.22
2023-02-11T05:42:18.185Z,98113.34
2023-02-11T05:44:44.518Z,98113.06
2023-02-11T05:47:10.799Z,98111.59
2023-02-11T05:49:37.089Z,98110.31
2023-02-11T05:52:03.403Z,98115.50
2023-02-11T05:54:29.690Z,98111.22
2023-02-11T05:56:55.973Z,98117.59
2023-02-11T05:59:22.278Z,98115.47
2023-02-11T06:01:48.570Z,98117.09
2023-02-11T06:04:14.858Z,98113.25
2023-02-11T06:06:41.167Z,98114.06
2023-02-11T06:09:07.492Z,98117.44
2023-02-11T06:11:33.792Z,98107.25
2023-02-11T06:14:00.143Z,98108.97
2023-02-11T06:16:26.515Z,98117.03
2023-02-11T06:18:52.847Z,98117.44
2023-02-11T06:21:19.143Z,98126.63
2023-02-11T06:23:45.439Z,98131.97
2023-02-11T06:26:11.752Z,98131.59
2023-02-11T06:28:40.768Z,98134.38
2023-02-11T06:31:08.331Z,98126.16
2023-02-11T06:33:34.679Z,98124.25
2023-02-11T06:36:01.004Z,98134.72
2023-02-11T06:38:27.292Z,98133.25
2023-02-11T06:40:53.596Z,98130.81
2023-02-11T06:43:19.916Z,98135.00
2023-02-11T06:45:46.204Z,98137.13
2023-02-11T06:48:12.488Z,98141.81
2023-02-11T06:50:38.825Z,98149.22
2023-02-11T06:53:05.108Z,98147.31
2023-02-11T06:55:31.405Z,98143.44
2023-02-11T06:57:57.720Z,98152.47
2023-02-11T07:00:24.018Z,98152.59
2023-02-11T07:02:50.314Z,98159.03
2023-02-11T07:05:16.643Z,98156.03
2023-02-11T07:07:42.932Z,98164.09
2023-02-11T07:10:09.209Z,98164.22
2023-02-11T07:12:35.529Z,98169.88
2023-02-11T07:15:01.838Z,98167.91
2023-02-11T07:17:28.132Z,98163.88
2023-02-11T07:19:54.446Z,98177.72
2023-02-11T07:22:20.761Z,98173.06
2023-02-11T07:24:47.049Z,98170.81
2023-02-11T07:27:13.375Z,98177.63
2023-02-11T07:29:39.662Z,98162.91
2023-02-11T07:32:06.017Z,98157.81
2023-02-11T07:34:32.444Z,98156.38
2023-02-11T07:36:58.724Z,98156.25
2023-02-11T07:39:25.022Z,98160.59
2023-02-11T07:41:51.335Z,98165.34
2023-02-11T07:44:17.623Z,98161.16
2023-02-11T07:46:43.948Z,98167.63
2023-02-11T07:49:10.306Z,98171.66
2023-02-11T07:51:37.717Z,98173.28
2023-02-11T07:54:04.014Z,98184.38
2023-02-11T07:56:30.361Z,98185.38
2023-02-11T07:58:56.649Z,98196.34
2023-02-11T08:01:23.001Z,98202.97
2023-02-11T08:03:49.413Z,98212.34
2023-02-11T08:06:15.719Z,98209.09
2023-02-11T08:08:42.151Z,98208.31
2023-02-11T08:11:08.461Z,98197.09
2023-02-11T08:13:34.745Z,98208.47
2023-02-11T08:16:01.120Z,98208.47
2023-02-11T08:18:27.470Z,98202.63
2023-02-11T08:20:53.762Z,98199.28
2023-02-11T08:23:20.232Z,98203.63
2023-02-11T08:25:46.554Z,98201.56
2023-02-11T08:28:12.918Z,98201.34
2023-02-11T08:30:39.363Z,98200.78
2023-02-11T08:33:07.555Z,98208.63
2023-02-11T08:35:33.855Z,98208.53
2023-02-11T08:38:00.153Z,98204.91
2023-02-11T08:40:26.464Z,98200.78
2023-02-11T08:42:52.750Z,98207.66
2023-02-11T08:45:19.065Z,98209.16
2023-02-11T08:47:45.361Z,98218.63
2023-02-11T08:50:11.658Z,98223.84
2023-02-11T08:52:37.957Z,98216.97
2023-02-11T08:55:04.257Z,98222.84
2023-02-11T08:57:30.550Z,98229.22
2023-02-11T08:59:56.837Z,98223.78
2023-02-11T09:02:23.210Z,98224.78
2023-02-11T09:04:49.532Z,98225.09
2023-02-11T09:07:15.837Z,98227.41
2023-02-11T09:09:42.140Z,98219.41
2023-02-11T09:12:08.440Z,98215.88
2023-02-11T09:14:34.724Z,98211.59
2023-02-11T09:17:01.068Z,98222.31
2023-02-11T09:19:27.405Z,98226.56
2023-02-11T09:21:53.699Z,98236.44
2023-02-11T09:24:20.013Z,98237.25
2023-02-11T09:26:46.308Z,98234.16
2023-02-11T09:29:12.614Z,98248.00
2023-02-11T09:31:39.067Z,98245.84
2023-02-11T09:34:05.445Z,98245.06
2023-02-11T09:36:31.718Z,98245.69
2023-02-11T09:38:58.046Z,98240.00
2023-02-11T09:41:24.378Z,98239.97
2023-02-11T09:43:50.669Z,98247.00
2023-02-11T09:46:17.068Z,98241.28
2023-02-11T09:48:43.377Z,98224.69
2023-02-11T09:51:09.666Z,98221.19
2023-02-11T09:53:35.973Z,98221.38
2023-02-11T09:56:02.306Z,98222.09
2023-02-11T09:58:28.607Z,98220.19
2023-02-11T10:00:54.924Z,98216.81
2023-02-11T10:03:21.226Z,98221.91
2023-02-11T10:05:47.534Z,98218.94
2023-02-11T10:08:16.743Z,98216.00
2023-02-11T10:10:43.243Z,98207.75
2023-02-11T10:13:09.546Z,98219.94
2023-02-11T10:15:35.907Z,98206.91
2023-02-11T10:18:02.233Z,98203.84
2023-02-11T10:20:28.535Z,98208.84
2023-02-11T10:22:54.847Z,98210.81
2023-02-11T10:25:21.150Z,98204.94
2023-02-11T10:27:47.448Z,98211.97
2023-02-11T10:30:13.764Z,98208.13
2023-02-11T10:32:40.075Z,98208.41
2023-02-11T10:35:06.359Z,98200.94
2023-02-11T10:37:32.670Z,98202.00
2023-02-11T10:39:58.950Z,98200.44
2023-02-11T10:42:25.241Z,98193.00
2023-02-11T10:44:51.549Z,98196.97
2023-02-11T10:47:17.859Z,98202.94
2023-02-11T10:49:44.166Z,98195.03
2023-02-11T10:52:10.483Z,98197.09
2023-02-11T10:54:36.769Z,98202.56
2023-02-11T10:57:03.069Z,98193.44
2023-02-11T10:59:29.500Z,98180.50
2023-02-11T11:01:55.986Z,98178.78
2023-02-11T11:04:22.300Z,98179.94
2023-02-11T11:06:48.679Z,98177.56
2023-02-11T11:09:14.973Z,98167.84
2023-02-11T11:11:41.253Z,98165.00
2023-02-11T11:14:07.580Z,98163.13
2023-02-11T11:16:33.878Z,98163.22
2023-02-11T11:19:00.180Z,98157.69
2023-02-11T11:21:26.491Z,98146.72
2023-02-11T11:23:52.779Z,98137.41
2023-02-11T11:26:19.060Z,98133.00
2023-02-11T11:28:45.373Z,98139.47
2023-02-11T11:31:11.741Z,98131.28
2023-02-11T11:33:38.104Z,98126.13
2023-02-11T11:36:04.411Z,98123.03
2023-02-11T11:38:30.696Z,98117.75
2023-02-11T11:40:56.987Z,98113.66
2023-02-11T11:43:23.519Z,98112.56
2023-02-11T11:45:49.806Z,98112.44
2023-02-11T11:48:16.097Z,98104.63
2023-02-11T11:50:42.398Z,98107.00
2023-02-11T11:53:08.699Z,98108.09
2023-02-11T11:55:34.999Z,98100.31
2023-02-11T11:58:01.304Z,98094.00
2023-02-11T12:00:27.601Z,98101.38
2023-02-11T12:02:53.975Z,98093.53
2023-02-11T12:05:20.378Z,98095.50
2023-02-11T12:07:46.665Z,98091.53
2023-02-11T12:10:12.965Z,98083.69
2023-02-11T12:12:39.284Z,98075.81
2023-02-11T12:15:05.603Z,98076.72
2023-02-11T12:17:31.894Z,98067.19
2023-02-11T12:19:58.243Z,98071.59
2023-02-11T12:22:24.531Z,98065.38
2023-02-11T12:24:50.824Z,98065.66
2023-02-11T12:27:17.128Z,98066.66
2023-02-11T12:29:43.427Z,98056.06
2023-02-11T12:32:09.766Z,98052.75
2023-02-11T12:34:36.114Z,98054.53
2023-02-11T12:37:02.992Z,98047.69
2023-02-11T12:39:29.384Z,98052.75
2023-02-11T12:41:55.729Z,98050.94
2023-02-11T12:44:22.021Z,98057.03
2023-02-11T12:46:48.319Z,98056.25
2023-02-11T12:49:14.633Z,98049.75
2023-02-11T12:51:40.936Z,98052.88
2023-02-11T12:54:07.231Z,98045.31
2023-02-11T12:56:33.551Z,98042.00
2023-02-11T12:58:59.844Z,98042.53
2023-02-11T13:01:26.226Z,98037.00
2023-02-11T13:03:52.615Z,98040.22
2023-02-11T13:06:18.901Z,98032.41
2023-02-11T13:08:45.180Z,98043.47
2023-02-11T13:11:13.925Z,98038.47
2023-02-11T13:13:40.754Z,98036.31
2023-02-11T13:16:07.065Z,98032.72
2023-02-11T13:18:33.367Z,98020.50
2023-02-11T13:20:59.698Z,98019.69
2023-02-11T13:23:26.028Z,98023.66
2023-02-11T13:25:52.373Z,98033.50
2023-02-11T13:28:18.700Z,98028.59
2023-02-11T13:30:45.151Z,98025.19
2023-02-11T13:33:11.514Z,98014.72
2023-02-11T13:35:37.807Z,98015.38
2023-02-11T13:38:04.104Z,98017.63
2023-02-11T13:40:30.407Z,98011.59
2023-02-11T13:42:56.686Z,98017.22
2023-02-11T13:45:22.969Z,98006.19
2023-02-11T13:47:52.386Z,98018.00
2023-02-11T13:50:18.967Z,98020.91
2023-02-11T13:52:45.252Z,98022.94
2023-02-11T13:55:11.549Z,98015.91
2023-02-11T13:57:37.836Z,98016.19
2023-02-11T14:00:04.124Z,98016.25
2023-02-11T14:02:30.454Z,98020.97
2023-02-11T14:04:56.801Z,98013.09
2023-02-11T14:07:23.091Z,98013.59
2023-02-11T14:09:49.406Z,98015.69
2023-02-11T14:12:15.722Z,98004.28
2023-02-11T14:14:42.021Z,98004.19
2023-02-11T14:17:08.375Z,98006.84
2023-02-11T14:19:34.685Z,98004.69
2023-02-11T14:22:00.988Z,98003.94
2023-02-11T14:24:27.322Z,97995.22
2023-02-11T14:26:53.625Z,97998.94
2023-02-11T14:29:19.922Z,97987.81
2023-02-11T14:31:46.392Z,97986.91
2023-02-11T14:34:12.712Z,97986.13
2023-02-11T14:36:39.005Z,97986.34
2023-02-11T14:39:05.296Z,97983.25
2023-02-11T14:41:31.587Z,97976.91
2023-02-11T14:43:57.876Z,97982.19
2023-02-11T14:46:24.256Z,97979.25
2023-02-11T14:48:50.602Z,97978.13
2023-02-11T14:51:16.901Z,97984.09
2023-02-11T14:53:43.227Z,97970.03
2023-02-11T14:56:09.575Z,97970.84
2023-02-11T14:58:35.869Z,97976.63
2023-02-11T15:01:02.288Z,97979.56
2023-02-11T15:03:28.579Z,97981.84
2023-02-11T15:05:54.868Z,97970.13
2023-02-11T15:08:21.181Z,97977.09
2023-02-11T15:10:47.480Z,97978.53
2023-02-11T15:13:13.774Z,97976.50
2023-02-11T15:15:40.108Z,97971.34
2023-02-11T15:18:06.420Z,97969.66
2023-02-11T15:20:32.717Z,97968.44
2023-02-11T15:22:59.020Z,97964.41
2023-02-11T15:25:25.306Z,97963.44
2023-02-11T15:27:51.589Z,97961.63
2023-02-11T15:30:17.905Z,97965.09
2023-02-11T15:32:44.212Z,97954.94
2023-02-11T15:35:10.508Z,97954.97
2023-02-11T15:37:36.844Z,97956.00
2023-02-11T15:40:03.135Z,97960.34
2023-02-11T15:42:30.405Z,97958.47
2023-02-11T15:44:58.907Z,97951.63
2023-02-11T15:47:25.208Z,97958.47
2023-02-11T15:49:51.495Z,97962.84
2023-02-11T15:52:17.804Z,97969.28
2023-02-11T15:54:44.102Z,97974.50
2023-02-11T15:57:10.404Z,97962.50
2023-02-11T15:59:36.715Z,97972.19
2023-02-11T16:02:03.051Z,97966.88
2023-02-11T16:04:29.436Z,97974.72
2023-02-11T16:06:55.764Z,97975.19
2023-02-11T16:09:22.067Z,97988.59
2023-02-11T16:11:48.380Z,97980.34
2023-02-11T16:14:14.689Z,97976.09
2023-02-11T16:16:40.982Z,97976.03
2023-02-11T16:19:07.314Z,97972.94
2023-02-11T16:21:33.674Z,97979.22
2023-02-11T16:23:59.964Z,97976.31
2023-02-11T16:26:26.256Z,97983.59
2023-02-11T16:28:52.566Z,97986.00
2023-02-11T16:31:19.008Z,97977.66
2023-02-11T16:33:45.362Z,97980.47
2023-02-11T16:36:11.666Z,97970.19
2023-02-11T16:38:37.953Z,97967.38
2023-02-11T16:41:04.272Z,97981.78
2023-02-11T16:43:30.615Z,97967.56
2023-02-11T16:45:56.963Z,97970.72
2023-02-11T16:48:23.248Z,97970.44
2023-02-11T16:50:52.212Z,97974.84
2023-02-11T16:53:19.622Z,97982.31
2023-02-11T16:55:45.921Z,97982.34
2023-02-11T16:58:12.230Z,97984.94
2023-02-11T17:00:38.536Z,97984.31
2023-02-11T17:03:04.862Z,97986.91
2023-02-11T17:05:31.197Z,97976.53
2023-02-11T17:07:57.522Z,97975.09
2023-02-11T17:10:23.834Z,97977.38
2023-02-11T17:12:50.149Z,97976.41
2023-02-11T17:15:16.450Z,97983.56
2023-02-11T17:17:42.753Z,97973.75
2023-02-11T17:20:09.047Z,97992.50
2023-02-11T17:22:35.343Z,97992.34
2023-02-11T17:25:01.634Z,97999.88
2023-02-11T17:27:27.958Z,98001.56
2023-02-11T17:29:54.246Z,98010.16
2023-02-11T17:32:20.609Z,98007.25
2023-02-11T17:34:46.932Z,98007.38
2023-02-11T17:37:13.220Z,98014.41
2023-02-11T17:39:39.529Z,98016.91
2023-02-11T17:42:05.891Z,98021.84
2023-02-11T17:44:32.186Z,98019.28
2023-02-11T17:46:58.481Z,98027.22
2023-02-11T17:49:24.827Z,98021.56
2023-02-11T17:51:51.106Z,98020.78
2023-02-11T17:54:17.410Z,98018.59
2023-02-11T17:56:43.751Z,98015.63
2023-02-11T17:59:10.062Z,98014.66
2023-02-11T18:01:36.352Z,98018.41
2023-02-11T18:04:02.666Z,98023.34
2023-02-11T18:06:28.986Z,98030.16
2023-02-11T18:08:57.847Z,98025.75
2023-02-11T18:11:24.307Z,98030.19
2023-02-11T18:13:50.611Z,98028.06
2023-02-11T18:16:16.989Z,98036.78
2023-02-11T18:18:43.348Z,98040.91
2023-02-11T18:21:09.645Z,98043.53
2023-02-11T18:23:35.944Z,98037.19
2023-02-11T18:26:02.265Z,98036.38
2023-02-11T18:28:28.605Z,98038.03
2023-02-11T18:30:55.001Z,98038.28
2023-02-11T18:33:21.393Z,98041.78
2023-02-11T18:35:47.672Z,98040.41
2023-02-11T18:38:13.965Z,98035.50
2023-02-11T18:40:40.311Z,98036.97
2023-02-11T18:43:06.721Z,98042.66
2023-02-11T18:45:33.034Z,98037.22
2023-02-11T18:47:59.358Z,98041.16
2023-02-11T18:50:25.646Z,98044.00
2023-02-11T18:52:51.932Z,98042.28
2023-02-11T18:55:18.282Z,98042.22
2023-02-11T18:57:44.594Z,98050.63
2023-02-11T19:00:10.901Z,98056.06
2023-02-11T19:02:37.244Z,98061.97
2023-02-11T19:05:03.543Z,98060.97
2023-02-11T19:07:29.835Z,98069.06
2023-02-11T19:09:56.152Z,98063.66
2023-02-11T19:12:22.453Z,98058.56
2023-02-11T19:14:48.754Z,98052.66
2023-02-11T19:17:15.065Z,98062.72
2023-02-11T19:19:41.364Z,98062.47
2023-02-11T19:22:10.421Z,98063.31
2023-02-11T19:24:37.042Z,98062.94
2023-02-11T19:27:03.334Z,98072.56
2023-02-11T19:29:29.634Z,98073.56
2023-02-11T19:31:56.090Z,98071.09
2023-02-11T19:34:22.468Z,98076.44
2023-02-11T19:36:48.793Z,98080.25
2023-02-11T19:39:15.128Z,98079.34
2023-02-11T19:41:41.481Z,98070.38
2023-02-11T19:44:07.791Z,98074.03
2023-02-11T19:46:34.187Z,98076.38
2023-02-11T19:49:00.541Z,98076.59
2023-02-11T19:51:26.848Z,98064.09
2023-02-11T19:53:53.164Z,98067.34
2023-02-11T19:56:20.906Z,98065.81
2023-02-11T19:58:47.338Z,98057.81
2023-02-11T20:01:13.761Z,98065.84
2023-02-11T20:03:42.429Z,98064.34
2023-02-11T20:06:08.929Z,98063.25
2023-02-11T20:08:35.285Z,98068.41
2023-02-11T20:11:01.577Z,98074.47
2023-02-11T20:13:27.879Z,98068.41
2023-02-11T20:15:54.633Z,98072.41
2023-02-11T20:18:21.365Z,98067.66
2023-02-11T20:20:47.665Z,98071.41
2023-02-11T20:23:13.997Z,98069.53
2023-02-11T20:25:40.291Z,98074.97
2023-02-11T20:28:06.609Z,98074.63
2023-02-11T20:30:32.935Z,98072.69
2023-02-11T20:32:59.228Z,98073.31
2023-02-11T20:35:25.520Z,98072.63
2023-02-11T20:37:51.842Z,98078.88
2023-02-11T20:40:18.180Z,98076.06
2023-02-11T20:42:44.470Z,98079.94
2023-02-11T20:45:10.796Z,98077.13
2023-02-11T20:47:37.099Z,98078.25
2023-02-11T20:50:03.408Z,98078.44
2023-02-11T20:52:29.721Z,98074.19
2023-02-11T20:54:56.001Z,98078.84
2023-02-11T20:57:22.295Z,98081.53
2023-02-11T20:59:50.921Z,98078.72
2023-02-11T21:02:17.224Z,98076.13
2023-02-11T21:04:43.521Z,98078.56
2023-02-11T21:07:09.881Z,98089.22
2023-02-11T21:09:36.177Z,98085.34
2023-02-11T21:12:02.522Z,98086.50
2023-02-11T21:14:28.847Z,98095.88
2023-02-11T21:16:55.136Z,98088.25
2023-02-11T21:19:21.490Z,98094.41
2023-02-11T21:21:47.814Z,98084.31
2023-02-11T21:24:14.107Z,98081.59
2023-02-11T21:26:40.410Z,98077.72
2023-02-11T21:29:06.707Z,98077.13
2023-02-11T21:31:33.182Z,98086.56
2023-02-11T21:33:59.599Z,98085.41
2023-02-11T21:36:25.941Z,98086.34
2023-02-11T21:38:52.225Z,98088.00
2023-02-11T21:41:18.537Z,98091.91
2023-02-11T21:43:44.843Z,98097.03
2023-02-11T21:46:11.205Z,98098.19
2023-02-11T21:48:37.548Z,98098.38
2023-02-11T21:51:03.859Z,98095.09
2023-02-11T21:53:30.156Z,98096.69
2023-02-11T21:55:56.686Z,98099.47
2023-02-11T21:58:23.086Z,98097.50
2023-02-11T22:00:49.415Z,98098.50
2023-02-11T22:03:15.717Z,98099.22
2023-02-11T22:05:42.018Z,98099.28
2023-02-11T22:08:08.306Z,98103.81
2023-02-11T22:10:34.601Z,98104.13
2023-02-11T22:13:00.953Z,98103.44
2023-02-11T22:15:27.266Z,98098.31
2023-02-11T22:17:53.558Z,98094.78
2023-02-11T22:20:19.873Z,98106.69
2023-02-11T22:22:46.173Z,98092.97
2023-02-11T22:25:12.465Z,98103.16
2023-02-11T22:27:38.969Z,98094.72
2023-02-11T22:30:05.259Z,98091.13
2023-02-11T22:32:31.534Z,98102.03
2023-02-11T22:34:57.841Z,98096.44
2023-02-11T22:37:24.142Z,98103.06
2023-02-11T22:39:50.451Z,98106.44
2023-02-11T22:42:16.753Z,98100.72
2023-02-11T22:44:43.044Z,98102.19
2023-02-11T22:47:09.326Z,98106.69
2023-02-11T22:49:35.645Z,98088.25
2023-02-11T22:52:01.955Z,98081.91
2023-02-11T22:54:28.253Z,98089.13
2023-02-11T22:56:54.572Z,98084.56
2023-02-11T22:59:20.872Z,98081.78
2023-02-11T23:01:47.251Z,98076.75
2023-02-11T23:04:13.593Z,98080.53
2023-02-11T23:06:39.889Z,98076.91
2023-02-11T23:09:06.180Z,98082.09
2023-02-11T23:11:32.493Z,98087.38
2023-02-11T23:13:58.799Z,98090.59
2023-02-11T23:16:25.151Z,98086.00
2023-02-11T23:18:51.523Z,98090.50
2023-02-11T23:21:17.842Z,98095.25
2023-02-11T23:23:44.133Z,98091.22
2023-02-11T23:26:10.450Z,98087.59
2023-02-11T23:28:36.796Z,98085.63
2023-02-11T23:31:03.294Z,98088.59
2023-02-11T23:33:29.619Z,98098.44
2023-02-11T23:35:56.232Z,98093.59
2023-02-11T23:38:22.683Z,98089.56
2023-02-11T23:40:49.016Z,98097.09
2023-02-11T23:43:15.311Z,98093.69
2023-02-11T23:45:41.641Z,98088.97
2023-02-11T23:48:07.962Z,98078.69
2023-02-11T23:50:34.257Z,98078.44
2023-02-11T23:53:00.545Z,98079.19
2023-02-11T23:55:26.860Z,98084.19
2023-02-11T23:57:53.154Z,98082.66
